sensor_id;sensor_type;location;lat;lon;timestamp;temperature;humidity
12452;DHT22;6291;48.924;12.204;2023-08-06T00:03:04;15.40;99.90
12452;DHT22;6291;48.924;12.204;2023-08-06T00:08:08;15.50;99.90
12452;DHT22;6291;48.924;12.204;2023-08-06T00:13:12;15.50;99.90
12452;DHT22;6291;48.924;12.204;2023-08-06T00:18:16;15.60;99.90
12452;DHT22;6291;48.924;12.204;2023-08-06T00:23:20;15.50;99.90
12452;DHT22;6291;48.924;12.204;2023-08-06T00:28:24;15.60;99.90
12452;DHT22;6291;48.924;12.204;2023-08-06T00:33:30;15.50;99.90
12452;DHT22;6291;48.924;12.204;2023-08-06T00:38:35;15.50;99.90
12452;DHT22;6291;48.924;12.204;2023-08-06T00:43:53;14.80;99.90
12452;DHT22;6291;48.924;12.204;2023-08-06T00:49:15;15.40;99.90
12452;DHT22;6291;48.924;12.204;2023-08-06T00:54:49;15.40;99.90
12452;DHT22;6291;48.924;12.204;2023-08-06T00:59:59;15.30;99.90
12452;DHT22;6291;48.924;12.204;2023-08-06T01:05:06;15.30;99.90
12452;DHT22;6291;48.924;12.204;2023-08-06T01:10:23;15.30;99.90
12452;DHT22;6291;48.924;12.204;2023-08-06T01:15:35;15.30;99.90
12452;DHT22;6291;48.924;12.204;2023-08-06T01:20:42;15.30;99.90
12452;DHT22;6291;48.924;12.204;2023-08-06T01:25:49;15.30;99.90
12452;DHT22;6291;48.924;12.204;2023-08-06T01:30:55;15.30;99.90
12452;DHT22;6291;48.924;12.204;2023-08-06T01:36:04;15.40;99.90
12452;DHT22;6291;48.924;12.204;2023-08-06T01:41:08;15.40;99.90
12452;DHT22;6291;48.924;12.204;2023-08-06T01:46:12;15.20;99.90
12452;DHT22;6291;48.924;12.204;2023-08-06T01:51:21;15.20;99.90
12452;DHT22;6291;48.924;12.204;2023-08-06T01:56:25;15.20;99.90
12452;DHT22;6291;48.924;12.204;2023-08-06T02:01:28;15.20;99.90
12452;DHT22;6291;48.924;12.204;2023-08-06T02:06:35;15.20;99.90
12452;DHT22;6291;48.924;12.204;2023-08-06T02:11:39;15.20;99.90
12452;DHT22;6291;48.924;12.204;2023-08-06T02:16:42;15.10;99.90
12452;DHT22;6291;48.924;12.204;2023-08-06T02:21:47;15.00;99.90
12452;DHT22;6291;48.924;12.204;2023-08-06T02:26:51;15.00;99.90
12452;DHT22;6291;48.924;12.204;2023-08-06T02:31:58;14.90;99.90
12452;DHT22;6291;48.924;12.204;2023-08-06T02:37:05;14.80;99.90
12452;DHT22;6291;48.924;12.204;2023-08-06T02:42:09;14.80;99.90
12452;DHT22;6291;48.924;12.204;2023-08-06T02:47:14;14.70;99.90
12452;DHT22;6291;48.924;12.204;2023-08-06T02:52:19;14.60;99.90
12452;DHT22;6291;48.924;12.204;2023-08-06T02:57:29;14.60;99.90
12452;DHT22;6291;48.924;12.204;2023-08-06T03:02:33;14.50;99.90
12452;DHT22;6291;48.924;12.204;2023-08-06T03:08:01;14.40;99.90
12452;DHT22;6291;48.924;12.204;2023-08-06T03:13:05;14.30;99.90
12452;DHT22;6291;48.924;12.204;2023-08-06T03:18:14;14.30;99.90
12452;DHT22;6291;48.924;12.204;2023-08-06T03:23:21;14.30;99.90
12452;DHT22;6291;48.924;12.204;2023-08-06T03:28:25;14.30;99.90
12452;DHT22;6291;48.924;12.204;2023-08-06T03:33:30;14.30;99.90
12452;DHT22;6291;48.924;12.204;2023-08-06T03:38:36;14.30;99.90
12452;DHT22;6291;48.924;12.204;2023-08-06T03:43:42;14.30;99.90
12452;DHT22;6291;48.924;12.204;2023-08-06T03:48:53;14.30;99.90
12452;DHT22;6291;48.924;12.204;2023-08-06T03:54:02;14.30;99.90
12452;DHT22;6291;48.924;12.204;2023-08-06T03:59:10;14.30;99.90
12452;DHT22;6291;48.924;12.204;2023-08-06T04:04:15;14.20;99.90
12452;DHT22;6291;48.924;12.204;2023-08-06T04:09:20;14.10;99.90
12452;DHT22;6291;48.924;12.204;2023-08-06T04:14:26;14.00;99.90
12452;DHT22;6291;48.924;12.204;2023-08-06T04:19:31;14.10;99.90
12452;DHT22;6291;48.924;12.204;2023-08-06T04:24:37;14.10;99.90
12452;DHT22;6291;48.924;12.204;2023-08-06T04:29:41;14.10;99.90
12452;DHT22;6291;48.924;12.204;2023-08-06T04:34:44;14.10;99.90
12452;DHT22;6291;48.924;12.204;2023-08-06T04:39:51;14.10;99.90
12452;DHT22;6291;48.924;12.204;2023-08-06T04:44:54;14.10;99.90
12452;DHT22;6291;48.924;12.204;2023-08-06T04:49:58;14.10;99.90
12452;DHT22;6291;48.924;12.204;2023-08-06T04:55:04;14.10;99.90
12452;DHT22;6291;48.924;12.204;2023-08-06T05:00:09;14.20;99.90
12452;DHT22;6291;48.924;12.204;2023-08-06T05:05:12;14.20;99.90
12452;DHT22;6291;48.924;12.204;2023-08-06T05:10:18;14.10;99.90
12452;DHT22;6291;48.924;12.204;2023-08-06T05:15:21;14.10;99.90
12452;DHT22;6291;48.924;12.204;2023-08-06T05:20:30;14.10;99.90
12452;DHT22;6291;48.924;12.204;2023-08-06T05:25:36;14.10;99.90
12452;DHT22;6291;48.924;12.204;2023-08-06T05:30:40;14.20;99.90
12452;DHT22;6291;48.924;12.204;2023-08-06T05:35:44;14.20;99.90
12452;DHT22;6291;48.924;12.204;2023-08-06T05:40:51;14.20;99.90
12452;DHT22;6291;48.924;12.204;2023-08-06T05:45:56;13.90;99.90
12452;DHT22;6291;48.924;12.204;2023-08-06T05:51:19;14.20;99.90
12452;DHT22;6291;48.924;12.204;2023-08-06T05:56:31;14.30;99.90
12452;DHT22;6291;48.924;12.204;2023-08-06T06:01:34;14.20;99.90
12452;DHT22;6291;48.924;12.204;2023-08-06T06:06:39;14.20;99.90
12452;DHT22;6291;48.924;12.204;2023-08-06T06:11:45;14.40;99.90
12452;DHT22;6291;48.924;12.204;2023-08-06T06:16:50;14.30;99.90
12452;DHT22;6291;48.924;12.204;2023-08-06T06:21:55;14.30;99.90
12452;DHT22;6291;48.924;12.204;2023-08-06T06:27:01;14.40;99.90
12452;DHT22;6291;48.924;12.204;2023-08-06T06:32:09;14.50;99.90
12452;DHT22;6291;48.924;12.204;2023-08-06T06:37:13;14.60;99.90
12452;DHT22;6291;48.924;12.204;2023-08-06T06:42:18;14.80;99.90
12452;DHT22;6291;48.924;12.204;2023-08-06T06:47:26;14.90;99.90
12452;DHT22;6291;48.924;12.204;2023-08-06T06:52:29;15.00;99.90
12452;DHT22;6291;48.924;12.204;2023-08-06T06:57:34;15.10;99.90
12452;DHT22;6291;48.924;12.204;2023-08-06T07:02:38;15.20;99.90
12452;DHT22;6291;48.924;12.204;2023-08-06T07:07:41;15.40;99.90
12452;DHT22;6291;48.924;12.204;2023-08-06T07:12:46;15.70;99.90
12452;DHT22;6291;48.924;12.204;2023-08-06T07:17:50;15.90;99.90
12452;DHT22;6291;48.924;12.204;2023-08-06T07:22:54;16.00;99.90
12452;DHT22;6291;48.924;12.204;2023-08-06T07:27:58;15.60;91.90
12452;DHT22;6291;48.924;12.204;2023-08-06T07:33:04;15.90;1.00
12452;DHT22;6291;48.924;12.204;2023-08-06T07:38:08;15.70;1.00
12452;DHT22;6291;48.924;12.204;2023-08-06T07:43:12;16.20;1.00
12452;DHT22;6291;48.924;12.204;2023-08-06T07:48:16;16.10;1.00
12452;DHT22;6291;48.924;12.204;2023-08-06T07:53:20;16.60;99.90
12452;DHT22;6291;48.924;12.204;2023-08-06T07:58:25;16.70;74.40
12452;DHT22;6291;48.924;12.204;2023-08-06T08:03:29;16.70;99.90
12452;DHT22;6291;48.924;12.204;2023-08-06T08:08:32;16.60;99.90
12452;DHT22;6291;48.924;12.204;2023-08-06T08:13:41;16.50;99.90
12452;DHT22;6291;48.924;12.204;2023-08-06T08:18:44;16.30;76.70
12452;DHT22;6291;48.924;12.204;2023-08-06T08:23:51;16.50;99.90
12452;DHT22;6291;48.924;12.204;2023-08-06T08:28:57;13.10;1.00
12452;DHT22;6291;48.924;12.204;2023-08-06T08:34:00;16.40;25.70
12452;DHT22;6291;48.924;12.204;2023-08-06T08:39:03;16.60;1.00
12452;DHT22;6291;48.924;12.204;2023-08-06T08:44:10;16.80;99.90
12452;DHT22;6291;48.924;12.204;2023-08-06T08:49:13;17.60;99.90
12452;DHT22;6291;48.924;12.204;2023-08-06T08:54:18;17.70;99.90
12452;DHT22;6291;48.924;12.204;2023-08-06T08:59:23;17.20;1.00
12452;DHT22;6291;48.924;12.204;2023-08-06T09:04:27;17.40;99.90
12452;DHT22;6291;48.924;12.204;2023-08-06T09:09:37;17.60;1.00
12452;DHT22;6291;48.924;12.204;2023-08-06T09:14:46;17.60;1.00
12452;DHT22;6291;48.924;12.204;2023-08-06T09:19:50;18.50;1.00
12452;DHT22;6291;48.924;12.204;2023-08-06T09:24:53;18.50;1.00
12452;DHT22;6291;48.924;12.204;2023-08-06T09:30:00;18.80;1.00
12452;DHT22;6291;48.924;12.204;2023-08-06T09:35:04;19.00;1.00
12452;DHT22;6291;48.924;12.204;2023-08-06T09:40:24;19.10;1.00
12452;DHT22;6291;48.924;12.204;2023-08-06T09:45:31;19.10;1.00
12452;DHT22;6291;48.924;12.204;2023-08-06T09:50:36;19.40;1.00
12452;DHT22;6291;48.924;12.204;2023-08-06T09:55:43;18.80;1.00
12452;DHT22;6291;48.924;12.204;2023-08-06T10:00:48;19.20;1.00
12452;DHT22;6291;48.924;12.204;2023-08-06T10:05:52;18.80;1.00
12452;DHT22;6291;48.924;12.204;2023-08-06T10:10:55;16.60;1.00
12452;DHT22;6291;48.924;12.204;2023-08-06T10:16:01;15.70;1.00
12452;DHT22;6291;48.924;12.204;2023-08-06T10:21:08;20.00;99.90
12452;DHT22;6291;48.924;12.204;2023-08-06T10:26:12;15.70;1.00
12452;DHT22;6291;48.924;12.204;2023-08-06T10:31:19;16.20;1.00
12452;DHT22;6291;48.924;12.204;2023-08-06T10:36:26;18.30;1.00
12452;DHT22;6291;48.924;12.204;2023-08-06T10:41:30;18.80;99.90
12452;DHT22;6291;48.924;12.204;2023-08-06T10:46:35;18.20;99.90
12452;DHT22;6291;48.924;12.204;2023-08-06T10:51:39;18.50;94.30
12452;DHT22;6291;48.924;12.204;2023-08-06T10:56:42;18.80;99.90
12452;DHT22;6291;48.924;12.204;2023-08-06T11:01:48;17.80;99.90
12452;DHT22;6291;48.924;12.204;2023-08-06T11:06:52;18.20;99.90
12452;DHT22;6291;48.924;12.204;2023-08-06T11:11:56;17.00;88.70
12452;DHT22;6291;48.924;12.204;2023-08-06T11:17:01;16.10;48.40
12452;DHT22;6291;48.924;12.204;2023-08-06T11:22:05;15.90;99.90
12452;DHT22;6291;48.924;12.204;2023-08-06T11:27:12;16.20;1.00
12452;DHT22;6291;48.924;12.204;2023-08-06T11:32:17;16.70;75.40
12452;DHT22;6291;48.924;12.204;2023-08-06T11:37:21;16.90;1.00
12452;DHT22;6291;48.924;12.204;2023-08-06T11:42:26;16.70;99.90
12452;DHT22;6291;48.924;12.204;2023-08-06T11:47:31;16.40;11.40
12452;DHT22;6291;48.924;12.204;2023-08-06T11:52:34;16.20;1.00
12452;DHT22;6291;48.924;12.204;2023-08-06T11:57:44;17.30;99.90
12452;DHT22;6291;48.924;12.204;2023-08-06T12:02:50;17.40;1.00
12452;DHT22;6291;48.924;12.204;2023-08-06T12:07:56;18.40;97.90
12452;DHT22;6291;48.924;12.204;2023-08-06T12:13:00;18.80;1.00
12452;DHT22;6291;48.924;12.204;2023-08-06T12:18:06;18.30;1.00
12452;DHT22;6291;48.924;12.204;2023-08-06T12:23:10;17.30;1.00
12452;DHT22;6291;48.924;12.204;2023-08-06T12:28:17;18.40;1.00
12452;DHT22;6291;48.924;12.204;2023-08-06T12:33:25;18.70;1.00
12452;DHT22;6291;48.924;12.204;2023-08-06T12:38:28;18.10;1.00
12452;DHT22;6291;48.924;12.204;2023-08-06T12:43:35;17.00;1.00
12452;DHT22;6291;48.924;12.204;2023-08-06T12:48:40;16.50;1.00
12452;DHT22;6291;48.924;12.204;2023-08-06T12:53:44;16.10;1.00
12452;DHT22;6291;48.924;12.204;2023-08-06T12:58:47;16.60;45.70
12452;DHT22;6291;48.924;12.204;2023-08-06T13:03:52;16.40;1.00
12452;DHT22;6291;48.924;12.204;2023-08-06T13:09:12;16.20;1.00
12452;DHT22;6291;48.924;12.204;2023-08-06T13:14:16;15.70;1.00
12452;DHT22;6291;48.924;12.204;2023-08-06T13:19:21;16.10;1.00
12452;DHT22;6291;48.924;12.204;2023-08-06T13:24:24;16.40;1.00
12452;DHT22;6291;48.924;12.204;2023-08-06T13:29:27;16.00;1.00
12452;DHT22;6291;48.924;12.204;2023-08-06T13:34:32;15.90;99.90
12452;DHT22;6291;48.924;12.204;2023-08-06T13:39:35;16.30;1.00
12452;DHT22;6291;48.924;12.204;2023-08-06T13:44:39;16.70;1.00
12452;DHT22;6291;48.924;12.204;2023-08-06T13:49:44;15.60;1.00
12452;DHT22;6291;48.924;12.204;2023-08-06T13:54:47;15.50;1.00
12452;DHT22;6291;48.924;12.204;2023-08-06T13:59:50;15.50;1.00
12452;DHT22;6291;48.924;12.204;2023-08-06T14:04:55;15.60;1.00
12452;DHT22;6291;48.924;12.204;2023-08-06T14:09:59;16.40;99.90
12452;DHT22;6291;48.924;12.204;2023-08-06T14:15:03;16.40;1.00
12452;DHT22;6291;48.924;12.204;2023-08-06T14:20:08;16.50;1.00
12452;DHT22;6291;48.924;12.204;2023-08-06T14:25:14;16.60;45.30
12452;DHT22;6291;48.924;12.204;2023-08-06T14:30:17;17.50;1.00
12452;DHT22;6291;48.924;12.204;2023-08-06T14:35:22;16.10;98.80
12452;DHT22;6291;48.924;12.204;2023-08-06T14:40:26;15.50;99.90
12452;DHT22;6291;48.924;12.204;2023-08-06T14:45:37;14.90;99.90
12452;DHT22;6291;48.924;12.204;2023-08-06T14:50:42;14.80;1.00
12452;DHT22;6291;48.924;12.204;2023-08-06T14:55:46;14.90;1.00
12452;DHT22;6291;48.924;12.204;2023-08-06T15:00:49;16.30;1.00
12452;DHT22;6291;48.924;12.204;2023-08-06T15:05:54;17.30;1.00
12452;DHT22;6291;48.924;12.204;2023-08-06T15:10:57;16.10;1.00
12452;DHT22;6291;48.924;12.204;2023-08-06T15:16:04;15.70;1.00
12452;DHT22;6291;48.924;12.204;2023-08-06T15:21:09;15.50;99.90
12452;DHT22;6291;48.924;12.204;2023-08-06T15:26:12;15.30;99.90
12452;DHT22;6291;48.924;12.204;2023-08-06T15:31:19;15.10;99.90
12452;DHT22;6291;48.924;12.204;2023-08-06T15:36:25;15.10;60.10
12452;DHT22;6291;48.924;12.204;2023-08-06T15:41:28;14.80;99.90
12452;DHT22;6291;48.924;12.204;2023-08-06T15:46:31;13.10;99.90
12452;DHT22;6291;48.924;12.204;2023-08-06T15:51:38;14.30;1.00
12452;DHT22;6291;48.924;12.204;2023-08-06T15:56:41;14.30;1.00
12452;DHT22;6291;48.924;12.204;2023-08-06T16:01:45;14.10;1.00
12452;DHT22;6291;48.924;12.204;2023-08-06T16:06:50;14.10;99.90
12452;DHT22;6291;48.924;12.204;2023-08-06T16:11:54;14.00;1.00
12452;DHT22;6291;48.924;12.204;2023-08-06T16:16:57;13.90;1.00
12452;DHT22;6291;48.924;12.204;2023-08-06T16:22:02;13.90;99.90
12452;DHT22;6291;48.924;12.204;2023-08-06T16:27:06;13.90;78.40
12452;DHT22;6291;48.924;12.204;2023-08-06T16:32:09;13.80;1.00
12452;DHT22;6291;48.924;12.204;2023-08-06T16:37:14;13.90;99.90
12452;DHT22;6291;48.924;12.204;2023-08-06T16:42:17;14.00;99.90
12452;DHT22;6291;48.924;12.204;2023-08-06T16:47:21;14.00;97.90
12452;DHT22;6291;48.924;12.204;2023-08-06T16:52:26;14.10;1.00
12452;DHT22;6291;48.924;12.204;2023-08-06T16:57:30;14.00;1.00
12452;DHT22;6291;48.924;12.204;2023-08-06T17:02:33;14.10;1.00
12452;DHT22;6291;48.924;12.204;2023-08-06T17:07:38;14.10;1.00
12452;DHT22;6291;48.924;12.204;2023-08-06T17:12:44;14.10;1.00
12452;DHT22;6291;48.924;12.204;2023-08-06T17:17:47;14.20;1.00
12452;DHT22;6291;48.924;12.204;2023-08-06T17:22:52;14.30;1.00
12452;DHT22;6291;48.924;12.204;2023-08-06T17:27:56;14.20;99.90
12452;DHT22;6291;48.924;12.204;2023-08-06T17:32:59;14.30;99.90
12452;DHT22;6291;48.924;12.204;2023-08-06T17:38:04;14.30;90.50
12452;DHT22;6291;48.924;12.204;2023-08-06T17:43:07;14.40;19.60
12452;DHT22;6291;48.924;12.204;2023-08-06T17:48:11;14.40;1.00
12452;DHT22;6291;48.924;12.204;2023-08-06T17:53:18;14.40;1.00
12452;DHT22;6291;48.924;12.204;2023-08-06T17:58:22;14.40;1.00
12452;DHT22;6291;48.924;12.204;2023-08-06T18:03:25;14.40;1.00
12452;DHT22;6291;48.924;12.204;2023-08-06T18:08:30;14.30;1.00
12452;DHT22;6291;48.924;12.204;2023-08-06T18:13:34;14.30;1.00
12452;DHT22;6291;48.924;12.204;2023-08-06T18:18:37;14.30;1.00
12452;DHT22;6291;48.924;12.204;2023-08-06T18:23:42;14.30;1.00
12452;DHT22;6291;48.924;12.204;2023-08-06T18:28:46;14.20;1.00
12452;DHT22;6291;48.924;12.204;2023-08-06T18:33:49;14.20;1.00
12452;DHT22;6291;48.924;12.204;2023-08-06T18:38:54;14.20;1.00
12452;DHT22;6291;48.924;12.204;2023-08-06T18:43:57;14.10;1.00
12452;DHT22;6291;48.924;12.204;2023-08-06T18:49:01;13.60;99.90
12452;DHT22;6291;48.924;12.204;2023-08-06T18:54:07;13.50;1.00
12452;DHT22;6291;48.924;12.204;2023-08-06T18:59:10;13.40;1.00
12452;DHT22;6291;48.924;12.204;2023-08-06T19:04:16;14.40;99.90
12452;DHT22;6291;48.924;12.204;2023-08-06T19:09:21;13.40;99.90
12452;DHT22;6291;48.924;12.204;2023-08-06T19:14:24;13.40;1.00
12452;DHT22;6291;48.924;12.204;2023-08-06T19:19:28;13.10;1.00
12452;DHT22;6291;48.924;12.204;2023-08-06T19:24:33;13.00;1.00
12452;DHT22;6291;48.924;12.204;2023-08-06T19:29:37;13.10;1.00
12452;DHT22;6291;48.924;12.204;2023-08-06T19:34:40;13.10;99.90
12452;DHT22;6291;48.924;12.204;2023-08-06T19:39:46;13.10;1.00
12452;DHT22;6291;48.924;12.204;2023-08-06T19:44:52;13.10;99.90
12452;DHT22;6291;48.924;12.204;2023-08-06T19:49:55;13.20;1.00
12452;DHT22;6291;48.924;12.204;2023-08-06T19:55:00;13.10;61.90
12452;DHT22;6291;48.924;12.204;2023-08-06T20:00:05;13.10;99.90
12452;DHT22;6291;48.924;12.204;2023-08-06T20:05:13;13.10;99.90
12452;DHT22;6291;48.924;12.204;2023-08-06T20:10:18;13.10;1.00
12452;DHT22;6291;48.924;12.204;2023-08-06T20:15:21;13.00;99.90
12452;DHT22;6291;48.924;12.204;2023-08-06T20:20:25;12.90;97.80
12452;DHT22;6291;48.924;12.204;2023-08-06T20:25:29;12.90;1.00
12452;DHT22;6291;48.924;12.204;2023-08-06T20:30:34;12.90;1.00
12452;DHT22;6291;48.924;12.204;2023-08-06T20:35:38;12.90;1.00
12452;DHT22;6291;48.924;12.204;2023-08-06T20:40:44;12.90;1.00
12452;DHT22;6291;48.924;12.204;2023-08-06T20:45:52;12.80;1.00
12452;DHT22;6291;48.924;12.204;2023-08-06T20:50:55;12.70;99.90
12452;DHT22;6291;48.924;12.204;2023-08-06T20:56:01;12.70;99.90
12452;DHT22;6291;48.924;12.204;2023-08-06T21:01:05;12.70;99.90
12452;DHT22;6291;48.924;12.204;2023-08-06T21:06:09;12.70;99.90
12452;DHT22;6291;48.924;12.204;2023-08-06T21:11:14;12.50;99.90
12452;DHT22;6291;48.924;12.204;2023-08-06T21:16:18;12.50;99.90
12452;DHT22;6291;48.924;12.204;2023-08-06T21:21:21;12.40;99.90
12452;DHT22;6291;48.924;12.204;2023-08-06T21:26:26;12.40;99.90
12452;DHT22;6291;48.924;12.204;2023-08-06T21:31:30;12.40;99.90
12452;DHT22;6291;48.924;12.204;2023-08-06T21:36:33;12.30;99.90
12452;DHT22;6291;48.924;12.204;2023-08-06T21:41:40;12.30;99.90
12452;DHT22;6291;48.924;12.204;2023-08-06T21:46:43;12.30;99.90
12452;DHT22;6291;48.924;12.204;2023-08-06T21:51:47;12.30;99.90
12452;DHT22;6291;48.924;12.204;2023-08-06T21:56:52;14.00;99.90
12452;DHT22;6291;48.924;12.204;2023-08-06T22:01:55;12.40;99.90
12452;DHT22;6291;48.924;12.204;2023-08-06T22:06:59;12.30;99.90
12452;DHT22;6291;48.924;12.204;2023-08-06T22:12:05;12.40;99.90
12452;DHT22;6291;48.924;12.204;2023-08-06T22:17:08;12.40;99.90
12452;DHT22;6291;48.924;12.204;2023-08-06T22:22:12;12.40;99.90
12452;DHT22;6291;48.924;12.204;2023-08-06T22:27:17;12.40;99.90
12452;DHT22;6291;48.924;12.204;2023-08-06T22:32:20;12.40;99.90
12452;DHT22;6291;48.924;12.204;2023-08-06T22:37:24;12.30;99.90
12452;DHT22;6291;48.924;12.204;2023-08-06T22:42:28;12.20;99.90
12452;DHT22;6291;48.924;12.204;2023-08-06T22:47:34;12.10;99.90
12452;DHT22;6291;48.924;12.204;2023-08-06T22:52:38;12.10;99.90
12452;DHT22;6291;48.924;12.204;2023-08-06T22:57:43;12.10;99.90
12452;DHT22;6291;48.924;12.204;2023-08-06T23:02:46;12.00;99.90
12452;DHT22;6291;48.924;12.204;2023-08-06T23:08:10;12.00;99.90
12452;DHT22;6291;48.924;12.204;2023-08-06T23:13:15;12.00;99.90
12452;DHT22;6291;48.924;12.204;2023-08-06T23:18:18;11.90;99.90
12452;DHT22;6291;48.924;12.204;2023-08-06T23:23:21;11.90;99.90
12452;DHT22;6291;48.924;12.204;2023-08-06T23:28:27;11.90;99.90
12452;DHT22;6291;48.924;12.204;2023-08-06T23:33:30;8.80;99.90
12452;DHT22;6291;48.924;12.204;2023-08-06T23:38:34;11.90;99.90
12452;DHT22;6291;48.924;12.204;2023-08-06T23:43:39;11.80;99.90
12452;DHT22;6291;48.924;12.204;2023-08-06T23:48:42;11.90;99.90
12452;DHT22;6291;48.924;12.204;2023-08-06T23:53:45;11.80;99.90
12452;DHT22;6291;48.924;12.204;2023-08-06T23:58:50;11.80;99.90
